sensor_id;sensor_type;location;lat;lon;timestamp;P1;P2;P0
67892;PMS7003;54688;52.376;16.744;2023-05-29T00:00:30;5;5;
67892;PMS7003;54688;52.376;16.744;2023-05-29T00:03:58;7;5;
67892;PMS7003;54688;52.376;16.744;2023-05-29T00:07:00;5;5;
67892;PMS7003;54688;52.376;16.744;2023-05-29T00:10:02;6;5;
67892;PMS7003;54688;52.376;16.744;2023-05-29T00:13:04;8;5;
67892;PMS7003;54688;52.376;16.744;2023-05-29T00:16:07;9;8;
67892;PMS7003;54688;52.376;16.744;2023-05-29T00:19:09;34;26;
67892;PMS7003;54688;52.376;16.744;2023-05-29T00:22:11;21;17;
67892;PMS7003;54688;52.376;16.744;2023-05-29T00:25:14;22;15;
67892;PMS7003;54688;52.376;16.744;2023-05-29T00:28:17;19;15;
67892;PMS7003;54688;52.376;16.744;2023-05-29T00:31:18;19;15;
67892;PMS7003;54688;52.376;16.744;2023-05-29T00:34:21;14;11;
67892;PMS7003;54688;52.376;16.744;2023-05-29T00:37:23;16;12;
67892;PMS7003;54688;52.376;16.744;2023-05-29T00:40:25;17;11;
67892;PMS7003;54688;52.376;16.744;2023-05-29T00:43:28;15;11;
67892;PMS7003;54688;52.376;16.744;2023-05-29T00:46:31;22;19;
67892;PMS7003;54688;52.376;16.744;2023-05-29T00:49:34;25;17;
67892;PMS7003;54688;52.376;16.744;2023-05-29T00:52:37;19;15;
67892;PMS7003;54688;52.376;16.744;2023-05-29T00:55:40;12;10;
67892;PMS7003;54688;52.376;16.744;2023-05-29T00:58:42;12;9;
67892;PMS7003;54688;52.376;16.744;2023-05-29T01:01:45;16;10;
67892;PMS7003;54688;52.376;16.744;2023-05-29T01:07:46;11;10;
67892;PMS7003;54688;52.376;16.744;2023-05-29T01:10:51;11;10;
67892;PMS7003;54688;52.376;16.744;2023-05-29T01:14:00;6;6;
67892;PMS7003;54688;52.376;16.744;2023-05-29T01:17:11;9;8;
67892;PMS7003;54688;52.376;16.744;2023-05-29T01:20:23;7;5;
67892;PMS7003;54688;52.376;16.744;2023-05-29T01:23:40;5;5;
67892;PMS7003;54688;52.376;16.744;2023-05-29T01:26:48;7;5;
67892;PMS7003;54688;52.376;16.744;2023-05-29T01:29:52;8;6;
67892;PMS7003;54688;52.376;16.744;2023-05-29T01:32:56;7;6;
67892;PMS7003;54688;52.376;16.744;2023-05-29T01:35:58;9;7;
67892;PMS7003;54688;52.376;16.744;2023-05-29T01:39:00;9;7;
67892;PMS7003;54688;52.376;16.744;2023-05-29T01:42:03;9;7;
67892;PMS7003;54688;52.376;16.744;2023-05-29T01:45:06;9;8;
67892;PMS7003;54688;52.376;16.744;2023-05-29T01:48:08;6;6;
67892;PMS7003;54688;52.376;16.744;2023-05-29T01:51:11;11;8;
67892;PMS7003;54688;52.376;16.744;2023-05-29T01:54:13;11;8;
67892;PMS7003;54688;52.376;16.744;2023-05-29T01:57:15;12;9;
67892;PMS7003;54688;52.376;16.744;2023-05-29T02:00:18;8;8;
67892;PMS7003;54688;52.376;16.744;2023-05-29T02:03:21;9;9;
67892;PMS7003;54688;52.376;16.744;2023-05-29T02:06:22;11;10;
67892;PMS7003;54688;52.376;16.744;2023-05-29T02:09:24;14;10;
67892;PMS7003;54688;52.376;16.744;2023-05-29T02:12:26;11;11;
67892;PMS7003;54688;52.376;16.744;2023-05-29T02:15:28;10;10;
67892;PMS7003;54688;52.376;16.744;2023-05-29T02:18:30;12;9;
67892;PMS7003;54688;52.376;16.744;2023-05-29T02:21:32;12;11;
67892;PMS7003;54688;52.376;16.744;2023-05-29T02:24:34;13;11;
67892;PMS7003;54688;52.376;16.744;2023-05-29T02:27:36;12;11;
67892;PMS7003;54688;52.376;16.744;2023-05-29T02:30:39;12;12;
67892;PMS7003;54688;52.376;16.744;2023-05-29T02:33:41;10;10;
67892;PMS7003;54688;52.376;16.744;2023-05-29T02:36:43;11;11;
67892;PMS7003;54688;52.376;16.744;2023-05-29T02:39:45;14;12;
67892;PMS7003;54688;52.376;16.744;2023-05-29T02:42:47;15;13;
67892;PMS7003;54688;52.376;16.744;2023-05-29T02:45:49;16;15;
67892;PMS7003;54688;52.376;16.744;2023-05-29T02:48:51;13;10;
67892;PMS7003;54688;52.376;16.744;2023-05-29T02:51:53;14;10;
67892;PMS7003;54688;52.376;16.744;2023-05-29T02:54:56;15;10;
67892;PMS7003;54688;52.376;16.744;2023-05-29T02:57:58;14;10;
67892;PMS7003;54688;52.376;16.744;2023-05-29T03:01:00;11;11;
67892;PMS7003;54688;52.376;16.744;2023-05-29T03:04:02;12;10;
67892;PMS7003;54688;52.376;16.744;2023-05-29T03:07:04;10;10;
67892;PMS7003;54688;52.376;16.744;2023-05-29T03:10:06;8;8;
67892;PMS7003;54688;52.376;16.744;2023-05-29T03:13:08;13;9;
67892;PMS7003;54688;52.376;16.744;2023-05-29T03:16:10;12;9;
67892;PMS7003;54688;52.376;16.744;2023-05-29T03:19:12;14;11;
67892;PMS7003;54688;52.376;16.744;2023-05-29T03:22:14;12;9;
67892;PMS7003;54688;52.376;16.744;2023-05-29T03:25:16;15;9;
67892;PMS7003;54688;52.376;16.744;2023-05-29T03:28:18;11;10;
67892;PMS7003;54688;52.376;16.744;2023-05-29T03:31:20;18;10;
67892;PMS7003;54688;52.376;16.744;2023-05-29T03:34:21;17;14;
67892;PMS7003;54688;52.376;16.744;2023-05-29T03:37:23;12;10;
67892;PMS7003;54688;52.376;16.744;2023-05-29T03:40:25;14;11;
67892;PMS7003;54688;52.376;16.744;2023-05-29T03:43:28;13;12;
67892;PMS7003;54688;52.376;16.744;2023-05-29T03:46:31;14;11;
67892;PMS7003;54688;52.376;16.744;2023-05-29T03:49:33;14;13;
67892;PMS7003;54688;52.376;16.744;2023-05-29T03:52:35;12;10;
67892;PMS7003;54688;52.376;16.744;2023-05-29T03:55:37;11;11;
67892;PMS7003;54688;52.376;16.744;2023-05-29T03:58:40;11;10;
67892;PMS7003;54688;52.376;16.744;2023-05-29T04:01:42;10;10;
67892;PMS7003;54688;52.376;16.744;2023-05-29T04:04:44;12;12;
67892;PMS7003;54688;52.376;16.744;2023-05-29T04:07:46;11;10;
67892;PMS7003;54688;52.376;16.744;2023-05-29T04:10:48;11;10;
67892;PMS7003;54688;52.376;16.744;2023-05-29T04:13:50;9;8;
67892;PMS7003;54688;52.376;16.744;2023-05-29T04:16:52;15;10;
67892;PMS7003;54688;52.376;16.744;2023-05-29T04:19:53;13;10;
67892;PMS7003;54688;52.376;16.744;2023-05-29T04:22:55;15;11;
67892;PMS7003;54688;52.376;16.744;2023-05-29T04:25:57;15;12;
67892;PMS7003;54688;52.376;16.744;2023-05-29T04:28:59;13;11;
67892;PMS7003;54688;52.376;16.744;2023-05-29T04:32:02;11;11;
67892;PMS7003;54688;52.376;16.744;2023-05-29T04:35:04;12;10;
67892;PMS7003;54688;52.376;16.744;2023-05-29T04:38:06;12;9;
67892;PMS7003;54688;52.376;16.744;2023-05-29T04:41:08;11;9;
67892;PMS7003;54688;52.376;16.744;2023-05-29T04:44:10;11;9;
67892;PMS7003;54688;52.376;16.744;2023-05-29T04:47:12;10;8;
67892;PMS7003;54688;52.376;16.744;2023-05-29T04:50:15;10;9;
67892;PMS7003;54688;52.376;16.744;2023-05-29T04:53:17;12;8;
67892;PMS7003;54688;52.376;16.744;2023-05-29T04:56:19;9;8;
67892;PMS7003;54688;52.376;16.744;2023-05-29T05:02:20;12;11;
67892;PMS7003;54688;52.376;16.744;2023-05-29T05:05:22;10;8;
67892;PMS7003;54688;52.376;16.744;2023-05-29T05:08:24;11;8;
67892;PMS7003;54688;52.376;16.744;2023-05-29T05:11:26;9;9;
67892;PMS7003;54688;52.376;16.744;2023-05-29T05:14:28;9;9;
67892;PMS7003;54688;52.376;16.744;2023-05-29T05:17:30;12;12;
67892;PMS7003;54688;52.376;16.744;2023-05-29T05:20:32;12;9;
67892;PMS7003;54688;52.376;16.744;2023-05-29T05:23:34;11;10;
67892;PMS7003;54688;52.376;16.744;2023-05-29T05:26:35;13;10;
67892;PMS7003;54688;52.376;16.744;2023-05-29T05:29:37;11;9;
67892;PMS7003;54688;52.376;16.744;2023-05-29T05:32:39;10;8;
67892;PMS7003;54688;52.376;16.744;2023-05-29T05:35:41;11;9;
67892;PMS7003;54688;52.376;16.744;2023-05-29T05:38:43;11;8;
67892;PMS7003;54688;52.376;16.744;2023-05-29T05:41:45;9;6;
67892;PMS7003;54688;52.376;16.744;2023-05-29T05:44:47;10;7;
67892;PMS7003;54688;52.376;16.744;2023-05-29T05:47:48;13;9;
67892;PMS7003;54688;52.376;16.744;2023-05-29T05:50:50;10;9;
67892;PMS7003;54688;52.376;16.744;2023-05-29T05:53:52;14;6;
67892;PMS7003;54688;52.376;16.744;2023-05-29T05:56:54;7;7;
67892;PMS7003;54688;52.376;16.744;2023-05-29T05:59:55;14;11;
67892;PMS7003;54688;52.376;16.744;2023-05-29T06:02:57;10;8;
67892;PMS7003;54688;52.376;16.744;2023-05-29T06:05:59;6;6;
67892;PMS7003;54688;52.376;16.744;2023-05-29T06:09:01;7;7;
67892;PMS7003;54688;52.376;16.744;2023-05-29T06:12:04;8;7;
67892;PMS7003;54688;52.376;16.744;2023-05-29T06:15:07;10;8;
67892;PMS7003;54688;52.376;16.744;2023-05-29T06:18:09;6;6;
67892;PMS7003;54688;52.376;16.744;2023-05-29T06:21:11;8;8;
67892;PMS7003;54688;52.376;16.744;2023-05-29T06:24:13;7;6;
67892;PMS7003;54688;52.376;16.744;2023-05-29T06:27:15;9;7;
67892;PMS7003;54688;52.376;16.744;2023-05-29T06:30:17;10;6;
67892;PMS7003;54688;52.376;16.744;2023-05-29T06:33:19;9;8;
67892;PMS7003;54688;52.376;16.744;2023-05-29T06:36:21;9;5;
67892;PMS7003;54688;52.376;16.744;2023-05-29T06:39:23;7;5;
67892;PMS7003;54688;52.376;16.744;2023-05-29T06:42:25;4;4;
67892;PMS7003;54688;52.376;16.744;2023-05-29T06:45:26;6;6;
67892;PMS7003;54688;52.376;16.744;2023-05-29T06:48:32;10;5;
67892;PMS7003;54688;52.376;16.744;2023-05-29T06:51:34;10;5;
67892;PMS7003;54688;52.376;16.744;2023-05-29T06:54:35;10;5;
67892;PMS7003;54688;52.376;16.744;2023-05-29T06:57:38;8;5;
67892;PMS7003;54688;52.376;16.744;2023-05-29T07:00:40;7;4;
67892;PMS7003;54688;52.376;16.744;2023-05-29T07:03:42;5;3;
67892;PMS7003;54688;52.376;16.744;2023-05-29T07:06:43;7;4;
67892;PMS7003;54688;52.376;16.744;2023-05-29T07:09:45;6;6;
67892;PMS7003;54688;52.376;16.744;2023-05-29T07:12:47;5;3;
67892;PMS7003;54688;52.376;16.744;2023-05-29T07:15:48;2;2;
67892;PMS7003;54688;52.376;16.744;2023-05-29T07:18:50;3;3;
67892;PMS7003;54688;52.376;16.744;2023-05-29T07:21:52;6;3;
67892;PMS7003;54688;52.376;16.744;2023-05-29T07:24:54;5;5;
67892;PMS7003;54688;52.376;16.744;2023-05-29T07:27:56;3;3;
67892;PMS7003;54688;52.376;16.744;2023-05-29T07:30:58;7;3;
67892;PMS7003;54688;52.376;16.744;2023-05-29T07:34:00;9;6;
67892;PMS7003;54688;52.376;16.744;2023-05-29T07:37:03;8;3;
67892;PMS7003;54688;52.376;16.744;2023-05-29T07:40:06;4;4;
67892;PMS7003;54688;52.376;16.744;2023-05-29T07:43:08;6;3;
67892;PMS7003;54688;52.376;16.744;2023-05-29T07:46:11;3;3;
67892;PMS7003;54688;52.376;16.744;2023-05-29T07:49:13;5;3;
67892;PMS7003;54688;52.376;16.744;2023-05-29T07:52:14;4;2;
67892;PMS7003;54688;52.376;16.744;2023-05-29T07:55:16;3;3;
67892;PMS7003;54688;52.376;16.744;2023-05-29T07:58:19;1;1;
67892;PMS7003;54688;52.376;16.744;2023-05-29T08:01:20;9;2;
67892;PMS7003;54688;52.376;16.744;2023-05-29T08:04:22;4;3;
67892;PMS7003;54688;52.376;16.744;2023-05-29T08:07:23;3;3;
67892;PMS7003;54688;52.376;16.744;2023-05-29T08:10:26;5;4;
67892;PMS7003;54688;52.376;16.744;2023-05-29T08:13:29;2;2;
67892;PMS7003;54688;52.376;16.744;2023-05-29T08:16:31;4;2;
67892;PMS7003;54688;52.376;16.744;2023-05-29T08:19:33;4;4;
67892;PMS7003;54688;52.376;16.744;2023-05-29T08:22:35;5;3;
67892;PMS7003;54688;52.376;16.744;2023-05-29T08:25:38;3;3;
67892;PMS7003;54688;52.376;16.744;2023-05-29T08:28:40;3;3;
67892;PMS7003;54688;52.376;16.744;2023-05-29T08:31:42;4;3;
67892;PMS7003;54688;52.376;16.744;2023-05-29T08:34:44;3;1;
67892;PMS7003;54688;52.376;16.744;2023-05-29T08:37:45;3;2;
67892;PMS7003;54688;52.376;16.744;2023-05-29T08:40:48;2;2;
67892;PMS7003;54688;52.376;16.744;2023-05-29T08:43:52;2;2;
67892;PMS7003;54688;52.376;16.744;2023-05-29T08:46:55;2;2;
67892;PMS7003;54688;52.376;16.744;2023-05-29T08:50:00;3;3;
67892;PMS7003;54688;52.376;16.744;2023-05-29T08:53:03;1;1;
67892;PMS7003;54688;52.376;16.744;2023-05-29T08:56:05;2;2;
67892;PMS7003;54688;52.376;16.744;2023-05-29T08:59:08;4;3;
67892;PMS7003;54688;52.376;16.744;2023-05-29T09:02:11;4;4;
67892;PMS7003;54688;52.376;16.744;2023-05-29T09:05:13;4;4;
67892;PMS7003;54688;52.376;16.744;2023-05-29T09:08:15;6;3;
67892;PMS7003;54688;52.376;16.744;2023-05-29T09:11:16;4;2;
67892;PMS7003;54688;52.376;16.744;2023-05-29T09:14:34;2;2;
67892;PMS7003;54688;52.376;16.744;2023-05-29T09:17:36;5;4;
67892;PMS7003;54688;52.376;16.744;2023-05-29T09:20:39;3;3;
67892;PMS7003;54688;52.376;16.744;2023-05-29T09:23:40;4;3;
67892;PMS7003;54688;52.376;16.744;2023-05-29T09:26:48;4;4;
67892;PMS7003;54688;52.376;16.744;2023-05-29T09:29:50;4;2;
67892;PMS7003;54688;52.376;16.744;2023-05-29T09:32:53;3;3;
67892;PMS7003;54688;52.376;16.744;2023-05-29T09:35:55;3;3;
67892;PMS7003;54688;52.376;16.744;2023-05-29T09:39:01;4;4;
67892;PMS7003;54688;52.376;16.744;2023-05-29T09:42:04;3;3;
67892;PMS7003;54688;52.376;16.744;2023-05-29T09:45:07;2;2;
67892;PMS7003;54688;52.376;16.744;2023-05-29T09:48:13;3;3;
67892;PMS7003;54688;52.376;16.744;2023-05-29T09:51:19;3;3;
67892;PMS7003;54688;52.376;16.744;2023-05-29T09:54:21;7;4;
67892;PMS7003;54688;52.376;16.744;2023-05-29T09:57:24;5;4;
67892;PMS7003;54688;52.376;16.744;2023-05-29T10:00:28;1;1;
67892;PMS7003;54688;52.376;16.744;2023-05-29T10:03:30;3;3;
67892;PMS7003;54688;52.376;16.744;2023-05-29T10:06:35;2;2;
67892;PMS7003;54688;52.376;16.744;2023-05-29T10:09:41;3;2;
67892;PMS7003;54688;52.376;16.744;2023-05-29T10:12:45;5;4;
67892;PMS7003;54688;52.376;16.744;2023-05-29T10:15:51;6;3;
67892;PMS7003;54688;52.376;16.744;2023-05-29T10:18:54;5;3;
67892;PMS7003;54688;52.376;16.744;2023-05-29T10:21:56;2;2;
67892;PMS7003;54688;52.376;16.744;2023-05-29T10:24:59;3;3;
67892;PMS7003;54688;52.376;16.744;2023-05-29T10:28:01;5;3;
67892;PMS7003;54688;52.376;16.744;2023-05-29T10:31:05;2;2;
67892;PMS7003;54688;52.376;16.744;2023-05-29T10:34:18;2;2;
67892;PMS7003;54688;52.376;16.744;2023-05-29T10:37:28;2;2;
67892;PMS7003;54688;52.376;16.744;2023-05-29T10:40:32;2;2;
67892;PMS7003;54688;52.376;16.744;2023-05-29T10:43:34;3;3;
67892;PMS7003;54688;52.376;16.744;2023-05-29T10:47:01;3;2;
67892;PMS7003;54688;52.376;16.744;2023-05-29T10:50:04;3;3;
67892;PMS7003;54688;52.376;16.744;2023-05-29T10:53:07;3;3;
67892;PMS7003;54688;52.376;16.744;2023-05-29T10:56:14;3;1;
67892;PMS7003;54688;52.376;16.744;2023-05-29T10:59:17;5;3;
67892;PMS7003;54688;52.376;16.744;2023-05-29T11:02:22;3;3;
67892;PMS7003;54688;52.376;16.744;2023-05-29T11:05:23;4;4;
67892;PMS7003;54688;52.376;16.744;2023-05-29T11:08:28;3;3;
67892;PMS7003;54688;52.376;16.744;2023-05-29T11:11:31;4;3;
67892;PMS7003;54688;52.376;16.744;2023-05-29T11:14:44;3;3;
67892;PMS7003;54688;52.376;16.744;2023-05-29T11:17:46;3;3;
67892;PMS7003;54688;52.376;16.744;2023-05-29T11:20:53;3;3;
67892;PMS7003;54688;52.376;16.744;2023-05-29T11:23:59;4;2;
67892;PMS7003;54688;52.376;16.744;2023-05-29T11:27:01;6;4;
67892;PMS7003;54688;52.376;16.744;2023-05-29T11:30:04;3;3;
67892;PMS7003;54688;52.376;16.744;2023-05-29T11:33:07;3;3;
67892;PMS7003;54688;52.376;16.744;2023-05-29T11:36:09;4;4;
67892;PMS7003;54688;52.376;16.744;2023-05-29T11:39:11;4;4;
67892;PMS7003;54688;52.376;16.744;2023-05-29T11:42:12;4;4;
67892;PMS7003;54688;52.376;16.744;2023-05-29T11:45:15;4;3;
67892;PMS7003;54688;52.376;16.744;2023-05-29T11:48:17;4;4;
67892;PMS7003;54688;52.376;16.744;2023-05-29T11:54:19;4;2;
67892;PMS7003;54688;52.376;16.744;2023-05-29T11:57:22;3;3;
67892;PMS7003;54688;52.376;16.744;2023-05-29T12:00:25;4;3;
67892;PMS7003;54688;52.376;16.744;2023-05-29T12:03:27;3;3;
67892;PMS7003;54688;52.376;16.744;2023-05-29T12:06:31;4;3;
67892;PMS7003;54688;52.376;16.744;2023-05-29T12:09:33;6;2;
67892;PMS7003;54688;52.376;16.744;2023-05-29T12:12:35;4;2;
67892;PMS7003;54688;52.376;16.744;2023-05-29T12:15:36;3;3;
67892;PMS7003;54688;52.376;16.744;2023-05-29T12:18:38;4;2;
67892;PMS7003;54688;52.376;16.744;2023-05-29T12:21:41;3;3;
67892;PMS7003;54688;52.376;16.744;2023-05-29T12:24:44;2;1;
67892;PMS7003;54688;52.376;16.744;2023-05-29T12:27:46;4;3;
67892;PMS7003;54688;52.376;16.744;2023-05-29T12:30:49;3;2;
67892;PMS7003;54688;52.376;16.744;2023-05-29T12:33:51;3;3;
67892;PMS7003;54688;52.376;16.744;2023-05-29T12:36:52;1;1;
67892;PMS7003;54688;52.376;16.744;2023-05-29T12:40:10;4;4;
67892;PMS7003;54688;52.376;16.744;2023-05-29T12:43:11;3;3;
67892;PMS7003;54688;52.376;16.744;2023-05-29T12:46:13;2;2;
67892;PMS7003;54688;52.376;16.744;2023-05-29T12:49:16;2;2;
67892;PMS7003;54688;52.376;16.744;2023-05-29T12:52:20;3;3;
67892;PMS7003;54688;52.376;16.744;2023-05-29T12:55:22;3;2;
67892;PMS7003;54688;52.376;16.744;2023-05-29T12:58:24;2;2;
67892;PMS7003;54688;52.376;16.744;2023-05-29T13:01:26;2;2;
67892;PMS7003;54688;52.376;16.744;2023-05-29T13:04:28;2;1;
67892;PMS7003;54688;52.376;16.744;2023-05-29T13:07:30;3;3;
67892;PMS7003;54688;52.376;16.744;2023-05-29T13:10:33;4;3;
67892;PMS7003;54688;52.376;16.744;2023-05-29T13:13:35;4;2;
67892;PMS7003;54688;52.376;16.744;2023-05-29T13:16:37;3;3;
67892;PMS7003;54688;52.376;16.744;2023-05-29T13:19:39;2;2;
67892;PMS7003;54688;52.376;16.744;2023-05-29T13:22:42;1;1;
67892;PMS7003;54688;52.376;16.744;2023-05-29T13:25:44;1;1;
67892;PMS7003;54688;52.376;16.744;2023-05-29T13:28:46;3;3;
67892;PMS7003;54688;52.376;16.744;2023-05-29T13:31:48;5;2;
67892;PMS7003;54688;52.376;16.744;2023-05-29T13:34:49;1;1;
67892;PMS7003;54688;52.376;16.744;2023-05-29T13:37:51;6;2;
67892;PMS7003;54688;52.376;16.744;2023-05-29T13:40:53;0;0;
67892;PMS7003;54688;52.376;16.744;2023-05-29T13:43:55;2;2;
67892;PMS7003;54688;52.376;16.744;2023-05-29T13:46:56;2;1;
67892;PMS7003;54688;52.376;16.744;2023-05-29T13:49:58;5;3;
67892;PMS7003;54688;52.376;16.744;2023-05-29T13:53:00;4;1;
67892;PMS7003;54688;52.376;16.744;2023-05-29T13:56:02;3;2;
67892;PMS7003;54688;52.376;16.744;2023-05-29T13:59:05;2;2;
67892;PMS7003;54688;52.376;16.744;2023-05-29T14:02:07;1;1;
67892;PMS7003;54688;52.376;16.744;2023-05-29T14:05:09;2;2;
67892;PMS7003;54688;52.376;16.744;2023-05-29T14:08:11;1;1;
67892;PMS7003;54688;52.376;16.744;2023-05-29T14:11:13;3;2;
67892;PMS7003;54688;52.376;16.744;2023-05-29T14:14:16;3;1;
67892;PMS7003;54688;52.376;16.744;2023-05-29T14:17:18;3;2;
67892;PMS7003;54688;52.376;16.744;2023-05-29T14:20:20;2;2;
67892;PMS7003;54688;52.376;16.744;2023-05-29T14:23:22;2;2;
67892;PMS7003;54688;52.376;16.744;2023-05-29T14:26:25;5;2;
67892;PMS7003;54688;52.376;16.744;2023-05-29T14:29:26;1;1;
67892;PMS7003;54688;52.376;16.744;2023-05-29T14:32:28;3;2;
67892;PMS7003;54688;52.376;16.744;2023-05-29T14:35:31;1;1;
67892;PMS7003;54688;52.376;16.744;2023-05-29T14:38:32;2;1;
67892;PMS7003;54688;52.376;16.744;2023-05-29T14:41:35;1;1;
67892;PMS7003;54688;52.376;16.744;2023-05-29T14:44:36;3;2;
67892;PMS7003;54688;52.376;16.744;2023-05-29T14:47:40;5;2;
67892;PMS7003;54688;52.376;16.744;2023-05-29T14:50:43;2;2;
67892;PMS7003;54688;52.376;16.744;2023-05-29T14:53:45;3;1;
67892;PMS7003;54688;52.376;16.744;2023-05-29T14:56:47;4;3;
67892;PMS7003;54688;52.376;16.744;2023-05-29T14:59:49;2;2;
67892;PMS7003;54688;52.376;16.744;2023-05-29T15:02:51;4;1;
67892;PMS7003;54688;52.376;16.744;2023-05-29T15:05:53;2;2;
67892;PMS7003;54688;52.376;16.744;2023-05-29T15:08:56;1;1;
67892;PMS7003;54688;52.376;16.744;2023-05-29T15:11:57;2;2;
67892;PMS7003;54688;52.376;16.744;2023-05-29T15:15:02;2;1;
67892;PMS7003;54688;52.376;16.744;2023-05-29T15:18:04;2;2;
67892;PMS7003;54688;52.376;16.744;2023-05-29T15:21:06;1;1;
67892;PMS7003;54688;52.376;16.744;2023-05-29T15:24:08;1;1;
67892;PMS7003;54688;52.376;16.744;2023-05-29T15:27:10;1;1;
67892;PMS7003;54688;52.376;16.744;2023-05-29T15:30:13;4;1;
67892;PMS7003;54688;52.376;16.744;2023-05-29T15:33:16;2;2;
67892;PMS7003;54688;52.376;16.744;2023-05-29T15:36:18;2;2;
67892;PMS7003;54688;52.376;16.744;2023-05-29T15:39:20;2;2;
67892;PMS7003;54688;52.376;16.744;2023-05-29T15:42:22;1;1;
67892;PMS7003;54688;52.376;16.744;2023-05-29T15:45:24;4;2;
67892;PMS7003;54688;52.376;16.744;2023-05-29T15:48:26;5;2;
67892;PMS7003;54688;52.376;16.744;2023-05-29T15:51:29;1;1;
67892;PMS7003;54688;52.376;16.744;2023-05-29T15:54:31;0;0;
67892;PMS7003;54688;52.376;16.744;2023-05-29T15:57:33;1;1;
67892;PMS7003;54688;52.376;16.744;2023-05-29T16:00:35;2;2;
67892;PMS7003;54688;52.376;16.744;2023-05-29T16:03:37;1;1;
67892;PMS7003;54688;52.376;16.744;2023-05-29T16:06:39;1;1;
67892;PMS7003;54688;52.376;16.744;2023-05-29T16:09:41;1;1;
67892;PMS7003;54688;52.376;16.744;2023-05-29T16:12:44;2;2;
67892;PMS7003;54688;52.376;16.744;2023-05-29T16:15:46;1;1;
67892;PMS7003;54688;52.376;16.744;2023-05-29T16:18:47;1;1;
67892;PMS7003;54688;52.376;16.744;2023-05-29T16:21:50;1;1;
67892;PMS7003;54688;52.376;16.744;2023-05-29T16:24:51;1;1;
67892;PMS7003;54688;52.376;16.744;2023-05-29T16:27:54;1;1;
67892;PMS7003;54688;52.376;16.744;2023-05-29T16:30:56;2;1;
67892;PMS7003;54688;52.376;16.744;2023-05-29T16:33:58;1;1;
67892;PMS7003;54688;52.376;16.744;2023-05-29T16:37:01;4;2;
67892;PMS7003;54688;52.376;16.744;2023-05-29T16:40:04;1;1;
67892;PMS7003;54688;52.376;16.744;2023-05-29T16:43:06;2;1;
67892;PMS7003;54688;52.376;16.744;2023-05-29T16:46:08;1;1;
67892;PMS7003;54688;52.376;16.744;2023-05-29T16:49:10;3;1;
67892;PMS7003;54688;52.376;16.744;2023-05-29T16:52:11;4;3;
67892;PMS7003;54688;52.376;16.744;2023-05-29T16:55:13;1;1;
67892;PMS7003;54688;52.376;16.744;2023-05-29T16:58:16;1;1;
67892;PMS7003;54688;52.376;16.744;2023-05-29T17:01:18;4;3;
67892;PMS7003;54688;52.376;16.744;2023-05-29T17:04:19;1;1;
67892;PMS7003;54688;52.376;16.744;2023-05-29T17:07:21;1;1;
67892;PMS7003;54688;52.376;16.744;2023-05-29T17:10:23;3;2;
67892;PMS7003;54688;52.376;16.744;2023-05-29T17:13:31;1;1;
67892;PMS7003;54688;52.376;16.744;2023-05-29T17:16:33;1;0;
67892;PMS7003;54688;52.376;16.744;2023-05-29T17:19:35;3;1;
67892;PMS7003;54688;52.376;16.744;2023-05-29T17:22:37;1;1;
67892;PMS7003;54688;52.376;16.744;2023-05-29T17:25:39;1;1;
67892;PMS7003;54688;52.376;16.744;2023-05-29T17:28:41;3;1;
67892;PMS7003;54688;52.376;16.744;2023-05-29T17:31:43;4;2;
67892;PMS7003;54688;52.376;16.744;2023-05-29T17:34:45;1;1;
67892;PMS7003;54688;52.376;16.744;2023-05-29T17:37:47;3;2;
67892;PMS7003;54688;52.376;16.744;2023-05-29T17:40:48;2;2;
67892;PMS7003;54688;52.376;16.744;2023-05-29T17:43:51;2;2;
67892;PMS7003;54688;52.376;16.744;2023-05-29T17:46:52;2;2;
67892;PMS7003;54688;52.376;16.744;2023-05-29T17:49:54;3;2;
67892;PMS7003;54688;52.376;16.744;2023-05-29T17:52:56;1;1;
67892;PMS7003;54688;52.376;16.744;2023-05-29T17:55:59;2;2;
67892;PMS7003;54688;52.376;16.744;2023-05-29T17:59:00;0;0;
67892;PMS7003;54688;52.376;16.744;2023-05-29T18:02:03;2;1;
67892;PMS7003;54688;52.376;16.744;2023-05-29T18:05:05;5;2;
67892;PMS7003;54688;52.376;16.744;2023-05-29T18:08:07;3;3;
67892;PMS7003;54688;52.376;16.744;2023-05-29T18:11:09;3;1;
67892;PMS7003;54688;52.376;16.744;2023-05-29T18:14:10;4;1;
67892;PMS7003;54688;52.376;16.744;2023-05-29T18:17:13;2;2;
67892;PMS7003;54688;52.376;16.744;2023-05-29T18:20:14;8;2;
67892;PMS7003;54688;52.376;16.744;2023-05-29T18:23:16;4;3;
67892;PMS7003;54688;52.376;16.744;2023-05-29T18:26:18;4;3;
67892;PMS7003;54688;52.376;16.744;2023-05-29T18:29:19;2;1;
67892;PMS7003;54688;52.376;16.744;2023-05-29T18:32:21;3;2;
67892;PMS7003;54688;52.376;16.744;2023-05-29T18:35:23;4;3;
67892;PMS7003;54688;52.376;16.744;2023-05-29T18:38:25;4;2;
67892;PMS7003;54688;52.376;16.744;2023-05-29T18:41:27;4;3;
67892;PMS7003;54688;52.376;16.744;2023-05-29T18:44:29;4;1;
67892;PMS7003;54688;52.376;16.744;2023-05-29T18:47:32;5;3;
67892;PMS7003;54688;52.376;16.744;2023-05-29T18:50:34;3;3;
67892;PMS7003;54688;52.376;16.744;2023-05-29T18:53:36;5;4;
67892;PMS7003;54688;52.376;16.744;2023-05-29T18:56:39;8;2;
67892;PMS7003;54688;52.376;16.744;2023-05-29T18:59:40;2;2;
67892;PMS7003;54688;52.376;16.744;2023-05-29T19:02:49;2;2;
67892;PMS7003;54688;52.376;16.744;2023-05-29T19:05:51;3;2;
67892;PMS7003;54688;52.376;16.744;2023-05-29T19:08:52;2;2;
67892;PMS7003;54688;52.376;16.744;2023-05-29T19:11:54;6;3;
67892;PMS7003;54688;52.376;16.744;2023-05-29T19:14:56;2;2;
67892;PMS7003;54688;52.376;16.744;2023-05-29T19:17:57;4;2;
67892;PMS7003;54688;52.376;16.744;2023-05-29T19:21:00;2;2;
67892;PMS7003;54688;52.376;16.744;2023-05-29T19:24:01;3;3;
67892;PMS7003;54688;52.376;16.744;2023-05-29T19:27:04;2;1;
67892;PMS7003;54688;52.376;16.744;2023-05-29T19:30:08;4;2;
67892;PMS7003;54688;52.376;16.744;2023-05-29T19:33:10;2;1;
67892;PMS7003;54688;52.376;16.744;2023-05-29T19:36:12;2;2;
67892;PMS7003;54688;52.376;16.744;2023-05-29T19:39:13;3;3;
67892;PMS7003;54688;52.376;16.744;2023-05-29T19:42:15;2;2;
67892;PMS7003;54688;52.376;16.744;2023-05-29T19:45:18;5;2;
67892;PMS7003;54688;52.376;16.744;2023-05-29T19:48:19;4;2;
67892;PMS7003;54688;52.376;16.744;2023-05-29T19:51:21;4;2;
67892;PMS7003;54688;52.376;16.744;2023-05-29T19:54:23;5;2;
67892;PMS7003;54688;52.376;16.744;2023-05-29T19:57:25;6;2;
67892;PMS7003;54688;52.376;16.744;2023-05-29T20:00:27;3;3;
67892;PMS7003;54688;52.376;16.744;2023-05-29T20:03:29;8;3;
67892;PMS7003;54688;52.376;16.744;2023-05-29T20:06:30;4;2;
67892;PMS7003;54688;52.376;16.744;2023-05-29T20:09:32;3;1;
67892;PMS7003;54688;52.376;16.744;2023-05-29T20:12:34;4;3;
67892;PMS7003;54688;52.376;16.744;2023-05-29T20:15:35;6;3;
67892;PMS7003;54688;52.376;16.744;2023-05-29T20:18:38;5;4;
67892;PMS7003;54688;52.376;16.744;2023-05-29T20:21:39;3;3;
67892;PMS7003;54688;52.376;16.744;2023-05-29T20:24:41;5;4;
67892;PMS7003;54688;52.376;16.744;2023-05-29T20:27:43;3;3;
67892;PMS7003;54688;52.376;16.744;2023-05-29T20:30:45;4;3;
67892;PMS7003;54688;52.376;16.744;2023-05-29T20:33:47;2;2;